createdAt,value
2022-08-26T00:01:56.022Z,22.10
2022-08-26T00:04:28.920Z,22.20
2022-08-26T00:07:11.510Z,22.30
2022-08-26T00:09:42.050Z,22.30
2022-08-26T00:12:16.012Z,22.30
2022-08-26T00:14:44.707Z,22.30
2022-08-26T00:17:14.743Z,22.20
2022-08-26T00:19:45.560Z,22.20
2022-08-26T00:22:20.268Z,22.30
2022-08-26T00:24:50.199Z,22.30
2022-08-26T00:27:21.226Z,22.20
2022-08-26T00:29:52.670Z,22.20
2022-08-26T00:32:24.849Z,22.20
2022-08-26T00:34:54.563Z,22.10
2022-08-26T00:37:23.273Z,22.10
2022-08-26T00:39:53.389Z,22.00
2022-08-26T00:42:22.027Z,22.10
2022-08-26T00:44:51.091Z,22.10
2022-08-26T00:47:31.720Z,22.20
2022-08-26T00:50:03.617Z,22.20
2022-08-26T00:52:32.413Z,22.10
2022-08-26T00:55:07.985Z,22.00
2022-08-26T00:57:37.777Z,22.10
2022-08-26T01:00:12.101Z,22.10
2022-08-26T01:02:46.810Z,22.10
2022-08-26T01:05:17.605Z,22.10
2022-08-26T01:07:47.546Z,22.10
2022-08-26T01:10:23.314Z,22.10
2022-08-26T01:12:59.181Z,22.10
2022-08-26T01:15:33.121Z,22.10
2022-08-26T01:18:05.379Z,22.00
2022-08-26T01:20:47.229Z,22.00
2022-08-26T01:23:17.226Z,22.10
2022-08-26T01:25:51.953Z,22.10
2022-08-26T01:28:25.076Z,21.90
2022-08-26T01:30:56.151Z,21.90
2022-08-26T01:33:40.040Z,21.90
2022-08-26T01:36:12.212Z,21.90
2022-08-26T01:38:43.960Z,21.80
2022-08-26T01:41:19.739Z,21.80
2022-08-26T01:43:57.906Z,21.80
2022-08-26T01:46:29.643Z,21.80
2022-08-26T01:49:04.342Z,21.80
2022-08-26T01:51:38.290Z,21.70
2022-08-26T01:54:12.040Z,21.70
2022-08-26T01:56:42.808Z,21.60
2022-08-26T01:59:15.959Z,21.70
2022-08-26T02:01:45.627Z,21.60
2022-08-26T02:04:21.245Z,21.60
2022-08-26T02:06:50.469Z,21.60
2022-08-26T02:09:21.822Z,21.60
2022-08-26T02:11:51.244Z,21.60
2022-08-26T02:14:24.004Z,21.70
2022-08-26T02:16:56.274Z,21.60
2022-08-26T02:19:31.308Z,21.60
2022-08-26T02:22:02.359Z,21.60
2022-08-26T02:24:52.709Z,21.70
2022-08-26T02:27:24.798Z,21.70
2022-08-26T02:29:58.198Z,21.70
2022-08-26T02:32:27.118Z,21.60
2022-08-26T02:34:55.490Z,21.70
2022-08-26T02:37:24.202Z,21.70
2022-08-26T02:39:55.123Z,21.70
2022-08-26T02:42:23.497Z,21.60
2022-08-26T02:44:53.265Z,21.50
2022-08-26T02:47:21.559Z,21.50
2022-08-26T02:49:53.328Z,21.50
2022-08-26T02:52:21.967Z,21.60
2022-08-26T02:54:50.369Z,21.60
2022-08-26T02:57:20.946Z,21.50
2022-08-26T02:59:50.726Z,21.50
2022-08-26T03:02:19.191Z,21.50
2022-08-26T03:04:58.183Z,21.50
2022-08-26T03:07:30.804Z,21.50
2022-08-26T03:09:59.177Z,21.50
2022-08-26T03:12:28.989Z,21.40
2022-08-26T03:14:58.552Z,21.50
2022-08-26T03:17:26.997Z,21.50
2022-08-26T03:19:57.329Z,21.40
2022-08-26T03:22:27.026Z,21.40
2022-08-26T03:24:57.159Z,21.40
2022-08-26T03:27:25.387Z,21.40
2022-08-26T03:30:12.745Z,21.30
2022-08-26T03:32:43.280Z,21.30
2022-08-26T03:35:12.688Z,21.30
2022-08-26T03:37:41.143Z,21.40
2022-08-26T03:40:11.577Z,21.40
2022-08-26T03:42:41.825Z,21.40
2022-08-26T03:45:16.953Z,21.30
2022-08-26T03:47:46.511Z,21.30
2022-08-26T03:50:22.929Z,21.30
2022-08-26T03:52:53.128Z,21.30
2022-08-26T03:55:27.596Z,21.20
2022-08-26T03:57:56.285Z,21.20
2022-08-26T04:00:26.261Z,21.20
2022-08-26T04:02:54.927Z,21.30
2022-08-26T04:05:24.807Z,21.30
2022-08-26T04:07:54.073Z,21.20
2022-08-26T04:10:28.402Z,21.10
2022-08-26T04:12:58.700Z,21.10
2022-08-26T04:15:29.389Z,21.00
2022-08-26T04:17:58.272Z,21.00
2022-08-26T04:20:27.415Z,20.90
2022-08-26T04:22:56.428Z,21.00
2022-08-26T04:25:25.384Z,21.00
2022-08-26T04:27:54.930Z,21.00
2022-08-26T04:30:23.588Z,21.00
2022-08-26T04:32:55.096Z,20.90
2022-08-26T04:35:25.988Z,20.90
2022-08-26T04:37:56.005Z,20.80
2022-08-26T04:40:27.753Z,20.90
2022-08-26T04:42:56.704Z,20.90
2022-08-26T04:45:26.014Z,21.00
2022-08-26T04:47:57.249Z,21.00
2022-08-26T04:50:26.998Z,21.10
2022-08-26T04:52:56.331Z,21.10
2022-08-26T04:55:38.619Z,21.10
2022-08-26T04:58:10.931Z,21.20
2022-08-26T05:00:40.327Z,21.20
2022-08-26T05:03:10.578Z,21.10
2022-08-26T05:05:42.453Z,21.20
2022-08-26T05:08:12.294Z,21.20
2022-08-26T05:10:42.113Z,21.10
2022-08-26T05:13:15.456Z,21.20
2022-08-26T05:15:45.856Z,21.30
2022-08-26T05:18:20.034Z,21.30
2022-08-26T05:20:51.075Z,21.20
2022-08-26T05:23:23.566Z,21.20
2022-08-26T05:25:58.951Z,21.20
2022-08-26T05:28:30.844Z,21.20
2022-08-26T05:30:59.214Z,21.20
2022-08-26T05:33:29.705Z,21.20
2022-08-26T05:35:57.951Z,21.30
2022-08-26T05:38:26.834Z,21.40
2022-08-26T05:40:58.921Z,21.50
2022-08-26T05:43:27.914Z,21.50
2022-08-26T05:45:57.393Z,21.60
2022-08-26T05:48:25.773Z,21.70
2022-08-26T05:50:55.451Z,21.70
2022-08-26T05:53:26.151Z,21.80
2022-08-26T05:55:56.107Z,21.80
2022-08-26T05:58:25.197Z,21.70
2022-08-26T06:01:02.408Z,21.70
2022-08-26T06:03:37.048Z,21.80
2022-08-26T06:06:09.767Z,21.90
2022-08-26T06:08:39.417Z,22.00
2022-08-26T06:11:18.703Z,22.10
2022-08-26T06:13:47.604Z,22.20
2022-08-26T06:16:19.448Z,22.10
2022-08-26T06:18:50.504Z,22.10
2022-08-26T06:21:23.697Z,22.20
2022-08-26T06:24:12.352Z,22.20
2022-08-26T06:26:42.702Z,22.30
2022-08-26T06:29:11.221Z,22.40
2022-08-26T06:31:51.945Z,22.50
2022-08-26T06:34:20.833Z,22.60
2022-08-26T06:36:53.139Z,22.70
2022-08-26T06:39:21.454Z,22.80
2022-08-26T06:41:49.768Z,22.90
2022-08-26T06:44:19.502Z,22.90
2022-08-26T06:46:50.516Z,22.80
2022-08-26T06:49:26.870Z,22.90
2022-08-26T06:51:58.946Z,22.90
2022-08-26T06:54:27.506Z,22.90
2022-08-26T06:56:56.958Z,22.80
2022-08-26T06:59:25.887Z,22.60
2022-08-26T07:01:54.690Z,22.70
2022-08-26T07:04:24.657Z,22.70
2022-08-26T07:06:54.118Z,22.70
2022-08-26T07:09:27.066Z,22.70
2022-08-26T07:11:57.175Z,22.70
2022-08-26T07:14:26.250Z,22.60
2022-08-26T07:16:55.643Z,22.60
2022-08-26T07:19:29.908Z,22.60
2022-08-26T07:21:59.769Z,22.50
2022-08-26T07:24:29.561Z,22.50
2022-08-26T07:27:01.980Z,22.60
2022-08-26T07:29:31.631Z,22.70
2022-08-26T07:32:00.712Z,22.70
2022-08-26T07:34:30.170Z,22.60
2022-08-26T07:36:59.369Z,22.60
2022-08-26T07:39:32.789Z,22.50
2022-08-26T07:42:01.784Z,22.60
2022-08-26T07:44:39.693Z,22.50
2022-08-26T07:47:10.118Z,22.40
2022-08-26T07:49:39.674Z,22.40
2022-08-26T07:52:09.227Z,22.30
2022-08-26T07:54:40.779Z,22.30
2022-08-26T07:57:09.420Z,22.20
2022-08-26T07:59:38.534Z,22.30
2022-08-26T08:02:07.157Z,22.40
2022-08-26T08:04:39.652Z,22.50
2022-08-26T08:07:11.445Z,22.40
2022-08-26T08:09:41.710Z,22.50
2022-08-26T08:12:14.115Z,22.50
2022-08-26T08:14:45.335Z,22.60
2022-08-26T08:17:14.566Z,22.80
2022-08-26T08:19:44.112Z,22.80
2022-08-26T08:22:17.273Z,22.70
2022-08-26T08:24:49.909Z,22.80
2022-08-26T08:27:23.876Z,22.80
2022-08-26T08:29:54.328Z,22.90
2022-08-26T08:32:24.147Z,23.00
2022-08-26T08:34:52.974Z,23.10
2022-08-26T08:37:21.283Z,23.10
2022-08-26T08:39:51.149Z,23.20
2022-08-26T08:42:39.013Z,23.40
2022-08-26T08:45:13.872Z,23.50
2022-08-26T08:47:48.138Z,23.60
2022-08-26T08:50:25.550Z,23.60
2022-08-26T08:53:12.965Z,23.60
2022-08-26T08:56:08.360Z,23.50
2022-08-26T08:58:53.734Z,23.10
2022-08-26T09:01:46.477Z,23.00
2022-08-26T09:05:04.666Z,23.00
2022-08-26T09:07:38.870Z,23.00
2022-08-26T09:10:28.578Z,23.20
2022-08-26T09:12:58.830Z,23.50
2022-08-26T09:15:34.207Z,23.70
2022-08-26T09:18:10.882Z,23.70
2022-08-26T09:20:50.782Z,23.70
2022-08-26T09:23:20.310Z,23.80
2022-08-26T09:25:51.676Z,23.80
2022-08-26T09:28:25.612Z,23.80
2022-08-26T09:31:11.520Z,23.90
2022-08-26T09:33:41.199Z,23.90
2022-08-26T09:36:26.207Z,23.90
2022-08-26T09:38:55.367Z,24.10
2022-08-26T09:41:31.634Z,23.90
2022-08-26T09:44:20.681Z,23.80
2022-08-26T09:46:58.273Z,23.70
2022-08-26T09:49:36.509Z,23.70
2022-08-26T09:52:18.618Z,23.60
2022-08-26T09:54:59.247Z,23.30
2022-08-26T09:57:35.882Z,23.40
2022-08-26T10:00:31.081Z,23.50
2022-08-26T10:03:02.675Z,23.60
2022-08-26T10:05:40.893Z,23.60
2022-08-26T10:08:25.652Z,23.80
2022-08-26T10:10:56.262Z,23.90
2022-08-26T10:13:33.127Z,24.10
2022-08-26T10:16:14.868Z,24.30
2022-08-26T10:18:48.307Z,24.40
2022-08-26T10:21:25.501Z,24.40
2022-08-26T10:23:59.785Z,24.40
2022-08-26T10:26:39.706Z,24.50
2022-08-26T10:29:17.096Z,24.60
2022-08-26T10:31:55.253Z,24.60
2022-08-26T10:34:32.269Z,24.60
2022-08-26T10:37:14.655Z,24.50
2022-08-26T10:39:58.544Z,24.40
2022-08-26T10:42:35.257Z,24.50
2022-08-26T10:45:11.908Z,24.50
2022-08-26T10:47:51.299Z,24.60
2022-08-26T10:50:21.323Z,24.60
2022-08-26T10:53:02.677Z,24.60
2022-08-26T10:55:38.222Z,24.80
2022-08-26T10:58:31.037Z,24.80
2022-08-26T11:01:26.981Z,24.60
2022-08-26T11:04:05.671Z,24.40
2022-08-26T11:06:34.430Z,24.40
2022-08-26T11:09:08.534Z,24.40
2022-08-26T11:11:58.508Z,24.50
2022-08-26T11:14:53.386Z,24.60
2022-08-26T11:18:00.003Z,24.90
2022-08-26T11:20:41.785Z,25.10
2022-08-26T11:23:50.535Z,25.50
2022-08-26T11:26:36.338Z,25.60
2022-08-26T11:29:13.625Z,25.70
2022-08-26T11:31:57.425Z,25.50
2022-08-26T11:34:59.459Z,25.40
2022-08-26T11:37:37.526Z,25.60
2022-08-26T11:40:14.320Z,25.70
2022-08-26T11:42:49.171Z,25.80
2022-08-26T11:45:26.705Z,25.80
2022-08-26T11:47:55.611Z,25.70
2022-08-26T11:50:27.500Z,25.60
2022-08-26T11:53:02.333Z,25.50
2022-08-26T11:55:32.588Z,25.40
2022-08-26T11:58:05.859Z,25.40
2022-08-26T12:00:51.332Z,25.30
2022-08-26T12:03:24.024Z,25.30
2022-08-26T12:05:55.079Z,25.40
2022-08-26T12:08:31.122Z,25.30
2022-08-26T12:11:06.308Z,25.40
2022-08-26T12:13:35.798Z,25.30
2022-08-26T12:16:07.442Z,25.40
2022-08-26T12:18:38.870Z,25.20
2022-08-26T12:21:22.120Z,25.00
2022-08-26T12:23:56.460Z,24.80
2022-08-26T12:26:29.161Z,24.80
2022-08-26T12:29:00.284Z,24.80
2022-08-26T12:31:35.142Z,24.70
2022-08-26T12:34:17.707Z,24.60
2022-08-26T12:36:50.951Z,24.60
2022-08-26T12:39:30.719Z,24.50
2022-08-26T12:42:01.486Z,24.60
2022-08-26T12:44:39.486Z,24.60
2022-08-26T12:47:12.847Z,24.50
2022-08-26T12:49:43.868Z,24.30
2022-08-26T12:52:32.266Z,24.10
2022-08-26T12:55:08.516Z,23.90
2022-08-26T12:57:38.961Z,23.90
2022-08-26T13:00:33.776Z,24.00
2022-08-26T13:03:03.395Z,24.10
2022-08-26T13:05:35.548Z,24.20
2022-08-26T13:08:12.780Z,24.20
2022-08-26T13:10:46.339Z,24.10
2022-08-26T13:13:15.019Z,24.00
2022-08-26T13:15:43.310Z,24.00
2022-08-26T13:18:11.547Z,24.20
2022-08-26T13:20:44.829Z,24.20
2022-08-26T13:23:13.649Z,24.30
2022-08-26T13:25:43.534Z,24.30
2022-08-26T13:28:11.767Z,24.30
2022-08-26T13:30:41.618Z,24.20
2022-08-26T13:33:12.062Z,24.30
2022-08-26T13:35:40.808Z,24.40
2022-08-26T13:38:20.584Z,24.50
2022-08-26T13:41:03.519Z,24.50
2022-08-26T13:43:33.156Z,24.40
2022-08-26T13:46:02.565Z,24.30
2022-08-26T13:48:32.485Z,24.40
2022-08-26T13:51:01.529Z,24.40
2022-08-26T13:53:31.503Z,24.20
2022-08-26T13:56:02.940Z,23.90
2022-08-26T13:58:31.241Z,23.80
2022-08-26T14:00:59.666Z,23.90
2022-08-26T14:03:28.073Z,23.90
2022-08-26T14:05:56.566Z,23.70
2022-08-26T14:08:25.079Z,23.70
2022-08-26T14:10:53.666Z,23.60
2022-08-26T14:13:23.408Z,23.80
2022-08-26T14:15:52.996Z,23.80
2022-08-26T14:18:29.616Z,23.80
2022-08-26T14:20:58.041Z,23.80
2022-08-26T14:23:26.485Z,23.80
2022-08-26T14:25:54.893Z,23.80
2022-08-26T14:30:59.545Z,24.00
2022-08-26T14:33:32.632Z,24.10
2022-08-26T14:36:15.646Z,24.20
2022-08-26T14:38:44.113Z,24.30
2022-08-26T14:41:13.767Z,24.50
2022-08-26T14:43:48.423Z,24.40
2022-08-26T14:46:18.293Z,24.30
2022-08-26T14:48:46.817Z,24.40
2022-08-26T14:51:15.110Z,24.40
2022-08-26T14:54:00.807Z,24.40
2022-08-26T14:56:31.345Z,24.50
2022-08-26T14:59:01.346Z,24.50
2022-08-26T15:01:31.118Z,24.50
2022-08-26T15:04:00.121Z,24.50
2022-08-26T15:06:30.073Z,24.50
2022-08-26T15:08:58.677Z,24.60
2022-08-26T15:11:27.265Z,24.70
2022-08-26T15:13:56.081Z,24.90
2022-08-26T15:16:25.860Z,24.80
2022-08-26T15:18:54.406Z,24.90
2022-08-26T15:21:24.169Z,24.80
2022-08-26T15:23:54.225Z,24.80
2022-08-26T15:26:23.557Z,25.00
2022-08-26T15:28:52.273Z,24.90
2022-08-26T15:31:25.601Z,24.90
2022-08-26T15:33:57.179Z,24.90
2022-08-26T15:36:25.414Z,24.70
2022-08-26T15:38:53.793Z,24.60
2022-08-26T15:41:24.637Z,24.50
2022-08-26T15:43:52.929Z,24.60
2022-08-26T15:46:21.892Z,24.50
2022-08-26T15:48:50.175Z,24.50
2022-08-26T15:51:25.917Z,24.50
2022-08-26T15:53:58.632Z,24.50
2022-08-26T15:56:28.557Z,24.40
2022-08-26T15:58:57.582Z,24.30
2022-08-26T16:01:28.597Z,24.30
2022-08-26T16:03:57.889Z,24.40
2022-08-26T16:06:31.571Z,24.50
2022-08-26T16:09:00.312Z,24.50
2022-08-26T16:11:29.308Z,24.70
2022-08-26T16:13:57.665Z,24.70
2022-08-26T16:16:26.548Z,24.80
2022-08-26T16:18:55.236Z,24.70
2022-08-26T16:21:28.843Z,24.50
2022-08-26T16:23:58.548Z,24.30
2022-08-26T16:26:34.966Z,24.20
2022-08-26T16:29:06.791Z,24.30
2022-08-26T16:31:35.645Z,24.30
2022-08-26T16:34:04.039Z,24.20
2022-08-26T16:36:33.760Z,24.20
2022-08-26T16:39:02.257Z,24.20
2022-08-26T16:41:32.249Z,24.20
2022-08-26T16:44:00.684Z,24.10
2022-08-26T16:46:29.654Z,24.00
2022-08-26T16:48:59.692Z,24.10
2022-08-26T16:51:29.479Z,23.90
2022-08-26T16:54:01.775Z,23.70
2022-08-26T16:56:33.725Z,23.60
2022-08-26T16:59:04.165Z,23.60
2022-08-26T17:01:32.741Z,23.40
2022-08-26T17:04:01.112Z,23.50
2022-08-26T17:06:29.753Z,23.30
2022-08-26T17:08:59.586Z,23.30
2022-08-26T17:11:27.920Z,23.20
2022-08-26T17:13:56.946Z,23.20
2022-08-26T17:16:27.107Z,23.00
2022-08-26T17:18:57.341Z,22.90
2022-08-26T17:21:27.964Z,22.80
2022-08-26T17:23:57.984Z,22.70
2022-08-26T17:26:27.122Z,22.70
2022-08-26T17:28:56.466Z,22.60
2022-08-26T17:31:27.989Z,22.60
2022-08-26T17:33:56.764Z,22.70
2022-08-26T17:36:28.448Z,22.60
2022-08-26T17:38:59.453Z,22.50
2022-08-26T17:41:28.308Z,22.60
2022-08-26T17:43:57.061Z,22.60
2022-08-26T17:46:26.632Z,22.70
2022-08-26T17:48:55.286Z,22.70
2022-08-26T17:51:24.045Z,22.80
2022-08-26T17:53:53.145Z,22.70
2022-08-26T17:56:26.137Z,22.60
2022-08-26T17:58:56.505Z,22.50
2022-08-26T18:01:28.331Z,22.40
2022-08-26T18:04:00.327Z,22.40
2022-08-26T18:06:30.384Z,22.30
2022-08-26T18:08:59.158Z,22.30
2022-08-26T18:11:29.701Z,22.40
2022-08-26T18:13:58.223Z,22.40
2022-08-26T18:16:26.618Z,22.30
2022-08-26T18:18:55.615Z,22.20
2022-08-26T18:21:26.949Z,22.20
2022-08-26T18:23:56.903Z,22.20
2022-08-26T18:26:29.207Z,22.20
2022-08-26T18:28:57.768Z,22.10
2022-08-26T18:31:26.423Z,22.00
2022-08-26T18:33:55.016Z,22.00
2022-08-26T18:36:26.823Z,22.00
2022-08-26T18:38:56.319Z,21.90
2022-08-26T18:41:27.718Z,21.90
2022-08-26T18:43:59.190Z,22.00
2022-08-26T18:46:29.046Z,21.90
2022-08-26T18:48:59.264Z,21.90
2022-08-26T18:51:30.481Z,21.70
2022-08-26T18:54:00.045Z,21.70
2022-08-26T18:56:29.198Z,21.60
2022-08-26T18:58:59.869Z,21.60
2022-08-26T19:01:30.127Z,21.60
2022-08-26T19:04:01.296Z,21.50
2022-08-26T19:06:32.992Z,21.50
2022-08-26T19:09:02.511Z,21.50
2022-08-26T19:11:37.624Z,21.60
2022-08-26T19:14:16.016Z,21.60
2022-08-26T19:16:47.562Z,21.70
2022-08-26T19:19:16.122Z,21.50
2022-08-26T19:21:44.484Z,21.60
2022-08-26T19:24:17.506Z,21.50
2022-08-26T19:26:48.780Z,21.50
2022-08-26T19:29:21.861Z,21.40
2022-08-26T19:31:50.254Z,21.30
2022-08-26T19:34:20.253Z,21.10
2022-08-26T19:36:49.468Z,20.90
2022-08-26T19:39:18.063Z,20.80
2022-08-26T19:41:46.709Z,20.70
2022-08-26T19:44:38.845Z,20.70
2022-08-26T19:47:11.978Z,20.70
2022-08-26T19:49:40.476Z,20.70
2022-08-26T19:52:09.764Z,20.70
2022-08-26T19:54:39.574Z,20.70
2022-08-26T19:57:08.273Z,20.70
2022-08-26T19:59:37.231Z,20.40
2022-08-26T20:02:10.554Z,20.50
2022-08-26T20:04:41.838Z,20.50
2022-08-26T20:07:14.211Z,20.40
2022-08-26T20:09:46.756Z,20.30
2022-08-26T20:12:15.859Z,20.20
2022-08-26T20:14:44.372Z,20.20
2022-08-26T20:17:12.873Z,20.10
2022-08-26T20:20:01.550Z,20.10
2022-08-26T20:22:30.384Z,20.00
2022-08-26T20:24:58.941Z,20.00
2022-08-26T20:27:37.884Z,20.00
2022-08-26T20:30:09.804Z,20.00
2022-08-26T20:32:39.381Z,19.90
2022-08-26T20:35:13.016Z,19.90
2022-08-26T20:37:42.087Z,19.80
2022-08-26T20:40:13.794Z,19.70
2022-08-26T20:42:42.533Z,19.60
2022-08-26T20:45:12.127Z,19.60
2022-08-26T20:47:41.032Z,19.60
2022-08-26T20:50:11.156Z,19.60
2022-08-26T20:52:39.539Z,19.60
2022-08-26T20:55:09.124Z,19.50
2022-08-26T20:57:37.468Z,19.40
2022-08-26T21:00:07.754Z,19.40
2022-08-26T21:02:46.472Z,19.30
2022-08-26T21:05:20.120Z,19.30
2022-08-26T21:07:48.572Z,19.20
2022-08-26T21:10:17.569Z,19.20
2022-08-26T21:12:46.367Z,19.10
2022-08-26T21:15:16.637Z,19.10
2022-08-26T21:17:45.137Z,19.00
2022-08-26T21:20:13.391Z,19.00
2022-08-26T21:22:51.176Z,19.00
2022-08-26T21:25:19.794Z,19.00
2022-08-26T21:27:48.265Z,19.00
2022-08-26T21:30:17.687Z,18.90
2022-08-26T21:32:46.036Z,18.80
2022-08-26T21:35:14.417Z,18.80
2022-08-26T21:37:44.065Z,18.80
2022-08-26T21:40:13.771Z,18.80
2022-08-26T21:42:42.122Z,18.70
2022-08-26T21:45:11.223Z,18.70
2022-08-26T21:47:40.602Z,18.70
2022-08-26T21:50:23.297Z,18.60
2022-08-26T21:52:53.040Z,18.60
2022-08-26T21:55:21.295Z,18.50
2022-08-26T21:57:49.705Z,18.50
2022-08-26T22:00:19.820Z,18.50
2022-08-26T22:02:50.236Z,18.50
2022-08-26T22:05:18.768Z,18.50
2022-08-26T22:07:47.185Z,18.40
2022-08-26T22:10:16.966Z,18.40
2022-08-26T22:12:45.307Z,18.40
2022-08-26T22:15:14.574Z,18.40
2022-08-26T22:17:42.921Z,18.40
2022-08-26T22:20:16.742Z,18.30
2022-08-26T22:22:45.267Z,18.30
2022-08-26T22:25:13.747Z,18.30
2022-08-26T22:27:43.500Z,18.30
2022-08-26T22:30:12.888Z,18.20
2022-08-26T22:32:41.131Z,18.20
2022-08-26T22:35:28.040Z,18.20
2022-08-26T22:37:58.376Z,18.20
2022-08-26T22:40:26.868Z,18.10
2022-08-26T22:42:58.658Z,18.20
2022-08-26T22:45:31.453Z,18.20
2022-08-26T22:48:00.232Z,18.10
2022-08-26T22:50:28.653Z,18.10
2022-08-26T22:52:56.969Z,18.00
2022-08-26T22:55:25.449Z,18.00
2022-08-26T22:57:53.937Z,18.00
2022-08-26T23:00:31.886Z,18.00
2022-08-26T23:03:01.091Z,18.00
2022-08-26T23:05:29.683Z,17.90
2022-08-26T23:07:58.473Z,17.90
2022-08-26T23:10:27.079Z,17.90
2022-08-26T23:12:55.662Z,18.00
2022-08-26T23:15:25.915Z,17.90
2022-08-26T23:17:58.504Z,17.90
2022-08-26T23:20:28.458Z,17.90
2022-08-26T23:22:57.149Z,17.90
2022-08-26T23:25:25.905Z,17.90
2022-08-26T23:27:54.496Z,17.80
2022-08-26T23:30:28.586Z,17.80
2022-08-26T23:32:56.941Z,17.80
2022-08-26T23:35:24.830Z,17.80
2022-08-26T23:37:53.792Z,17.80
2022-08-26T23:40:26.441Z,17.80
2022-08-26T23:42:56.488Z,17.80
2022-08-26T23:45:27.854Z,17.70
2022-08-26T23:47:56.577Z,17.70
2022-08-26T23:50:50.017Z,17.70
2022-08-26T23:53:20.802Z,17.70
2022-08-26T23:55:51.441Z,17.70
2022-08-26T23:58:22.354Z,17.70
